createdAt,value
2023-04-15T00:02:20.311Z,93454.22
2023-04-15T00:04:48.125Z,93460.53
2023-04-15T00:07:15.599Z,93456.44
2023-04-15T00:09:42.470Z,93457.88
2023-04-15T00:12:09.287Z,93451.16
2023-04-15T00:14:36.153Z,93450.97
2023-04-15T00:17:03.215Z,93448.84
2023-04-15T00:19:30.999Z,93457.41
2023-04-15T00:21:58.282Z,93446.00
2023-04-15T00:24:24.965Z,93447.50
2023-04-15T00:26:51.664Z,93437.25
2023-04-15T00:29:21.258Z,93445.81
2023-04-15T00:31:48.021Z,93448.63
2023-04-15T00:34:15.266Z,93448.19
2023-04-15T00:36:42.976Z,93447.47
2023-04-15T00:39:09.701Z,93445.41
2023-04-15T00:41:36.443Z,93451.44
2023-04-15T00:44:03.453Z,93446.59
2023-04-15T00:46:30.815Z,93448.72
2023-04-15T00:48:57.698Z,93451.06
2023-04-15T00:51:24.484Z,93450.59
2023-04-15T00:53:51.618Z,93455.09
2023-04-15T00:56:19.408Z,93454.25
2023-04-15T00:58:46.510Z,93450.38
2023-04-15T01:01:13.611Z,93445.88
2023-04-15T01:03:40.954Z,93440.31
2023-04-15T01:06:07.890Z,93449.63
2023-04-15T01:08:34.729Z,93451.44
2023-04-15T01:11:01.818Z,93451.88
2023-04-15T01:13:28.868Z,93449.13
2023-04-15T01:15:57.306Z,93435.97
2023-04-15T01:18:24.033Z,93439.88
2023-04-15T01:20:50.785Z,93448.66
2023-04-15T01:23:17.886Z,93452.38
2023-04-15T01:25:44.998Z,93445.69
2023-04-15T01:28:11.692Z,93443.97
2023-04-15T01:30:38.393Z,93447.22
2023-04-15T01:33:05.637Z,93442.03
2023-04-15T01:35:32.374Z,93447.06
2023-04-15T01:38:06.985Z,93444.94
2023-04-15T01:40:34.254Z,93445.84
2023-04-15T01:43:02.654Z,93446.25
2023-04-15T01:45:29.907Z,93452.88
2023-04-15T01:47:56.680Z,93438.63
2023-04-15T01:50:24.417Z,93444.25
2023-04-15T01:52:51.123Z,93436.19
2023-04-15T01:55:18.383Z,93438.56
2023-04-15T01:57:45.103Z,93438.19
2023-04-15T02:00:12.168Z,93432.50
2023-04-15T02:02:40.126Z,93435.03
2023-04-15T02:05:07.232Z,93438.19
2023-04-15T02:07:33.921Z,93437.91
2023-04-15T02:10:01.630Z,93426.88
2023-04-15T02:12:28.458Z,93429.06
2023-04-15T02:14:55.205Z,93437.13
2023-04-15T02:17:22.228Z,93436.47
2023-04-15T02:19:49.754Z,93426.09
2023-04-15T02:22:16.867Z,93431.13
2023-04-15T02:24:43.938Z,93425.56
2023-04-15T02:27:10.792Z,93427.00
2023-04-15T02:29:37.798Z,93416.50
2023-04-15T02:32:05.406Z,93410.38
2023-04-15T02:34:32.368Z,93419.00
2023-04-15T02:36:59.607Z,93420.38
2023-04-15T02:39:26.629Z,93414.34
2023-04-15T02:41:53.867Z,93414.69
2023-04-15T02:44:20.728Z,93414.06
2023-04-15T02:46:47.700Z,93410.47
2023-04-15T02:49:15.413Z,93412.63
2023-04-15T02:51:42.136Z,93416.63
2023-04-15T02:54:11.717Z,93415.47
2023-04-15T02:56:38.464Z,93416.13
2023-04-15T02:59:05.321Z,93418.66
2023-04-15T03:01:32.630Z,93422.72
2023-04-15T03:03:59.505Z,93421.66
2023-04-15T03:06:26.711Z,93423.25
2023-04-15T03:08:55.652Z,93423.00
2023-04-15T03:11:22.331Z,93416.16
2023-04-15T03:13:49.045Z,93420.44
2023-04-15T03:16:16.268Z,93415.88
2023-04-15T03:18:43.209Z,93415.22
2023-04-15T03:21:10.040Z,93419.16
2023-04-15T03:23:37.268Z,93412.84
2023-04-15T03:26:04.521Z,93416.75
2023-04-15T03:28:33.198Z,93416.41
2023-04-15T03:31:00.650Z,93413.13
2023-04-15T03:33:27.407Z,93417.41
2023-04-15T03:35:54.510Z,93412.16
2023-04-15T03:38:21.313Z,93410.22
2023-04-15T03:40:48.121Z,93411.56
2023-04-15T03:43:15.159Z,93411.47
2023-04-15T03:45:42.342Z,93413.69
2023-04-15T03:48:16.635Z,93410.63
2023-04-15T03:50:47.633Z,93406.97
2023-04-15T03:53:14.912Z,93401.34
2023-04-15T03:55:41.660Z,93413.81
2023-04-15T03:58:08.388Z,93410.06
2023-04-15T04:00:35.462Z,93413.97
2023-04-15T04:03:04.392Z,93412.84
2023-04-15T04:05:31.833Z,93411.13
2023-04-15T04:07:58.782Z,93410.81
2023-04-15T04:10:26.284Z,93406.94
2023-04-15T04:12:56.441Z,93407.72
2023-04-15T04:15:26.027Z,93408.84
2023-04-15T04:17:53.133Z,93407.66
2023-04-15T04:20:19.898Z,93403.28
2023-04-15T04:22:46.977Z,93411.13
2023-04-15T04:25:13.659Z,93408.56
2023-04-15T04:27:40.340Z,93411.97
2023-04-15T04:30:07.678Z,93408.13
2023-04-15T04:32:34.780Z,93411.81
2023-04-15T04:35:01.539Z,93416.13
2023-04-15T04:37:28.285Z,93405.09
2023-04-15T04:39:55.078Z,93412.28
2023-04-15T04:42:22.105Z,93406.84
2023-04-15T04:44:49.224Z,93409.38
2023-04-15T04:47:16.050Z,93403.28
2023-04-15T04:49:42.812Z,93408.88
2023-04-15T04:52:09.507Z,93399.47
2023-04-15T04:54:36.187Z,93395.78
2023-04-15T04:57:02.897Z,93390.03
2023-04-15T04:59:29.577Z,93384.47
2023-04-15T05:01:56.413Z,93392.44
2023-04-15T05:04:23.092Z,93389.03
2023-04-15T05:06:49.965Z,93394.41
2023-04-15T05:09:16.685Z,93384.59
2023-04-15T05:11:43.717Z,93396.97
2023-04-15T05:14:10.436Z,93392.38
2023-04-15T05:16:37.469Z,93401.16
2023-04-15T05:19:04.177Z,93389.38
2023-04-15T05:21:31.286Z,93391.41
2023-04-15T05:23:58.199Z,93392.91
2023-04-15T05:26:26.407Z,93385.78
2023-04-15T05:28:53.149Z,93392.03
2023-04-15T05:31:20.504Z,93397.19
2023-04-15T05:33:50.013Z,93392.09
2023-04-15T05:36:16.905Z,93387.09
2023-04-15T05:38:43.633Z,93383.66
2023-04-15T05:41:10.488Z,93378.53
2023-04-15T05:43:38.731Z,93383.53
2023-04-15T05:46:06.082Z,93386.41
2023-04-15T05:48:33.221Z,93388.78
2023-04-15T05:51:00.633Z,93380.16
2023-04-15T05:53:27.854Z,93382.44
2023-04-15T05:55:54.897Z,93387.88
2023-04-15T05:58:21.690Z,93388.81
2023-04-15T06:00:49.418Z,93385.66
2023-04-15T06:03:16.535Z,93386.78
2023-04-15T06:05:43.883Z,93384.31
2023-04-15T06:08:13.507Z,93385.00
2023-04-15T06:10:40.579Z,93396.13
2023-04-15T06:13:08.026Z,93402.75
2023-04-15T06:15:35.314Z,93399.44
2023-04-15T06:18:03.523Z,93404.47
2023-04-15T06:20:30.266Z,93404.69
2023-04-15T06:22:57.901Z,93411.00
2023-04-15T06:25:25.169Z,93414.84
2023-04-15T06:27:53.134Z,93418.94
2023-04-15T06:30:19.912Z,93416.19
2023-04-15T06:32:46.742Z,93422.50
2023-04-15T06:35:13.928Z,93431.75
2023-04-15T06:37:40.820Z,93430.97
2023-04-15T06:40:10.624Z,93433.63
2023-04-15T06:42:38.185Z,93443.41
2023-04-15T06:45:08.007Z,93443.50
2023-04-15T06:47:35.477Z,93439.69
2023-04-15T06:50:02.452Z,93439.81
2023-04-15T06:52:48.468Z,93442.22
2023-04-15T06:55:15.327Z,93453.75
2023-04-15T06:57:42.474Z,93443.28
2023-04-15T07:00:11.596Z,93448.66
2023-04-15T07:02:38.528Z,93445.78
2023-04-15T07:05:06.378Z,93449.31
2023-04-15T07:07:33.534Z,93443.88
2023-04-15T07:10:03.365Z,93443.25
2023-04-15T07:12:45.749Z,93440.72
2023-04-15T07:15:14.207Z,93430.19
2023-04-15T07:17:42.210Z,93430.78
2023-04-15T07:20:09.217Z,93422.13
2023-04-15T07:22:36.229Z,93432.13
2023-04-15T07:25:03.019Z,93428.19
2023-04-15T07:27:29.883Z,93441.66
2023-04-15T07:29:56.771Z,93439.88
2023-04-15T07:32:23.537Z,93438.47
2023-04-15T07:34:50.703Z,93435.06
2023-04-15T07:40:54.702Z,93438.81
2023-04-15T07:43:21.522Z,93444.97
2023-04-15T07:45:49.079Z,93440.94
2023-04-15T07:48:16.278Z,93437.31
2023-04-15T07:50:43.340Z,93448.59
2023-04-15T07:53:10.031Z,93442.97
2023-04-15T07:55:37.066Z,93450.41
2023-04-15T07:58:46.046Z,93441.84
2023-04-15T08:01:14.129Z,93438.81
2023-04-15T08:03:41.317Z,93448.44
2023-04-15T08:06:08.675Z,93444.69
2023-04-15T08:08:35.451Z,93443.84
2023-04-15T08:11:02.225Z,93445.22
2023-04-15T08:13:29.004Z,93451.13
2023-04-15T08:16:21.401Z,93445.41
2023-04-15T08:18:48.660Z,93448.25
2023-04-15T08:21:16.196Z,93452.81
2023-04-15T08:23:43.461Z,93453.09
2023-04-15T08:26:10.229Z,93450.53
2023-04-15T08:28:38.692Z,93457.31
2023-04-15T08:31:05.548Z,93456.50
2023-04-15T08:37:27.104Z,93458.41
2023-04-15T08:39:54.286Z,93467.81
2023-04-15T08:42:25.229Z,93471.28
2023-04-15T08:44:52.500Z,93473.38
2023-04-15T08:47:20.858Z,93467.06
2023-04-15T08:49:47.653Z,93475.69
2023-04-15T08:52:24.412Z,93475.97
2023-04-15T08:54:51.165Z,93474.25
2023-04-15T08:57:17.899Z,93479.66
2023-04-15T08:59:44.773Z,93480.94
2023-04-15T09:02:12.059Z,93489.16
2023-04-15T09:04:39.025Z,93485.81
2023-04-15T09:10:54.445Z,93502.22
2023-04-15T09:13:22.709Z,93507.75
2023-04-15T09:15:49.776Z,93514.13
2023-04-15T09:18:27.793Z,93507.25
2023-04-15T09:20:54.970Z,93510.56
2023-04-15T09:23:21.957Z,93516.41
2023-04-15T09:25:49.152Z,93518.06
2023-04-15T09:28:23.971Z,93522.69
2023-04-15T09:30:52.957Z,93520.06
2023-04-15T09:33:19.707Z,93523.81
2023-04-15T09:35:56.886Z,93526.06
2023-04-15T09:38:23.675Z,93542.47
2023-04-15T09:40:50.484Z,93532.78
2023-04-15T09:43:17.681Z,93535.97
2023-04-15T09:45:49.524Z,93541.66
2023-04-15T09:48:26.181Z,93553.34
2023-04-15T09:50:52.885Z,93546.84
2023-04-15T09:53:20.683Z,93550.88
2023-04-15T09:55:52.845Z,93553.34
2023-04-15T09:58:31.809Z,93564.53
2023-04-15T10:00:59.632Z,93571.84
2023-04-15T10:03:34.773Z,93575.41
2023-04-15T10:06:04.676Z,93579.38
2023-04-15T10:08:32.893Z,93567.78
2023-04-15T10:11:00.492Z,93570.31
2023-04-15T10:13:29.427Z,93571.75
2023-04-15T10:15:59.326Z,93586.09
2023-04-15T10:18:27.565Z,93587.56
2023-04-15T10:20:54.752Z,93590.78
2023-04-15T10:23:23.089Z,93592.53
2023-04-15T10:25:50.653Z,93599.91
2023-04-15T10:28:19.061Z,93599.72
2023-04-15T10:30:46.326Z,93601.75
2023-04-15T10:33:13.415Z,93608.66
2023-04-15T10:35:53.269Z,93614.41
2023-04-15T10:38:38.720Z,93607.91
2023-04-15T10:41:25.136Z,93617.88
2023-04-15T10:43:56.105Z,93626.97
2023-04-15T10:46:40.295Z,93623.75
2023-04-15T10:49:14.508Z,93624.53
2023-04-15T10:51:43.229Z,93622.88
2023-04-15T10:54:38.858Z,93627.03
2023-04-15T10:57:05.637Z,93635.84
2023-04-15T10:59:35.712Z,93636.56
2023-04-15T11:02:04.003Z,93641.16
2023-04-15T11:04:53.479Z,93646.09
2023-04-15T11:07:52.387Z,93646.66
2023-04-15T11:10:51.163Z,93649.44
2023-04-15T11:13:21.247Z,93646.25
2023-04-15T11:16:01.641Z,93654.53
2023-04-15T11:18:43.338Z,93660.88
2023-04-15T11:21:11.520Z,93661.94
2023-04-15T11:27:25.069Z,93659.81
2023-04-15T11:29:51.926Z,93664.34
2023-04-15T11:32:18.693Z,93670.50
2023-04-15T11:34:48.220Z,93667.38
2023-04-15T11:37:15.419Z,93670.88
2023-04-15T11:39:42.183Z,93675.41
2023-04-15T11:42:18.210Z,93681.22
2023-04-15T11:44:44.994Z,93672.34
2023-04-15T11:47:24.658Z,93683.59
2023-04-15T11:49:51.363Z,93689.38
2023-04-15T11:52:18.483Z,93692.94
2023-04-15T11:54:45.160Z,93702.56
2023-04-15T11:57:12.388Z,93686.88
2023-04-15T11:59:45.438Z,93696.59
2023-04-15T12:02:14.374Z,93692.31
2023-04-15T12:04:41.428Z,93699.81
2023-04-15T12:07:08.630Z,93700.81
2023-04-15T12:09:37.894Z,93704.28
2023-04-15T12:12:04.604Z,93703.38
2023-04-15T12:14:31.766Z,93699.28
2023-04-15T12:17:05.720Z,93718.09
2023-04-15T12:19:37.046Z,93702.72
2023-04-15T12:22:14.427Z,93717.09
2023-04-15T12:24:48.740Z,93723.69
2023-04-15T12:27:21.598Z,93733.13
2023-04-15T12:29:51.221Z,93726.84
2023-04-15T12:32:18.117Z,93737.81
2023-04-15T12:34:49.697Z,93735.16
2023-04-15T12:37:16.440Z,93740.03
2023-04-15T12:39:47.706Z,93744.16
2023-04-15T12:42:16.073Z,93745.16
2023-04-15T12:44:43.070Z,93749.34
2023-04-15T12:47:10.219Z,93746.78
2023-04-15T12:49:38.917Z,93754.84
2023-04-15T12:52:05.841Z,93759.44
2023-04-15T12:54:32.595Z,93759.31
2023-04-15T12:56:59.575Z,93762.09
2023-04-15T12:59:26.294Z,93763.44
2023-04-15T13:01:53.236Z,93771.13
2023-04-15T13:04:20.595Z,93776.53
2023-04-15T13:06:47.617Z,93774.78
2023-04-15T13:09:14.451Z,93775.44
2023-04-15T13:11:41.382Z,93790.06
2023-04-15T13:14:09.118Z,93782.44
2023-04-15T13:16:35.843Z,93787.81
2023-04-15T13:19:03.605Z,93783.06
2023-04-15T13:21:30.519Z,93796.22
2023-04-15T13:23:57.244Z,93793.81
2023-04-15T13:26:23.984Z,93798.88
2023-04-15T13:28:50.740Z,93798.50
2023-04-15T13:31:19.283Z,93800.81
2023-04-15T13:33:46.217Z,93814.47
2023-04-15T13:36:13.161Z,93811.16
2023-04-15T13:38:39.839Z,93810.00
2023-04-15T13:41:06.584Z,93815.31
2023-04-15T13:43:33.245Z,93812.88
2023-04-15T13:46:00.330Z,93820.59
2023-04-15T13:48:27.129Z,93817.19
2023-04-15T13:50:53.926Z,93817.47
2023-04-15T13:53:20.756Z,93824.91
2023-04-15T13:56:03.817Z,93824.50
2023-04-15T13:58:30.496Z,93828.50
2023-04-15T14:00:58.247Z,93827.91
2023-04-15T14:03:25.106Z,93829.56
2023-04-15T14:05:51.954Z,93831.03
2023-04-15T14:08:23.035Z,93834.03
2023-04-15T14:10:50.628Z,93840.56
2023-04-15T14:13:17.491Z,93846.16
2023-04-15T14:15:46.303Z,93842.41
2023-04-15T14:18:14.016Z,93856.03
2023-04-15T14:20:40.742Z,93849.53
2023-04-15T14:23:07.814Z,93855.81
2023-04-15T14:25:34.538Z,93855.25
2023-04-15T14:28:02.312Z,93861.72
2023-04-15T14:30:29.144Z,93855.72
2023-04-15T14:32:56.051Z,93861.84
2023-04-15T14:35:22.930Z,93859.94
2023-04-15T14:37:49.803Z,93876.03
2023-04-15T14:40:16.489Z,93871.13
2023-04-15T14:43:22.157Z,93866.63
2023-04-15T14:45:51.804Z,93877.22
2023-04-15T14:48:18.646Z,93876.84
2023-04-15T14:50:45.415Z,93885.81
2023-04-15T14:53:12.542Z,93879.06
2023-04-15T14:55:39.334Z,93882.94
2023-04-15T14:58:06.737Z,93893.78
2023-04-15T15:00:36.888Z,93895.94
2023-04-15T15:03:03.677Z,93892.28
2023-04-15T15:05:30.561Z,93902.09
2023-04-15T15:07:57.375Z,93903.63
2023-04-15T15:10:35.810Z,93905.88
2023-04-15T15:13:11.627Z,93914.34
2023-04-15T15:15:38.599Z,93919.56
2023-04-15T15:18:05.759Z,93914.66
2023-04-15T15:20:32.700Z,93917.03
2023-04-15T15:23:03.102Z,93925.06
2023-04-15T15:25:29.883Z,93928.72
2023-04-15T15:27:58.741Z,93933.13
2023-04-15T15:30:27.804Z,93939.06
2023-04-15T15:32:54.560Z,93941.88
2023-04-15T15:35:21.298Z,93940.88
2023-04-15T15:37:48.060Z,93944.84
2023-04-15T15:40:16.444Z,93951.88
2023-04-15T15:43:03.960Z,93949.31
2023-04-15T15:45:31.201Z,93953.00
2023-04-15T15:48:06.140Z,93958.41
2023-04-15T15:50:34.190Z,93958.53
2023-04-15T15:53:00.888Z,93967.59
2023-04-15T15:55:31.014Z,93962.91
2023-04-15T15:57:58.147Z,93970.13
2023-04-15T16:00:26.254Z,93967.84
2023-04-15T16:03:06.847Z,93971.56
2023-04-15T16:05:37.053Z,93983.66
2023-04-15T16:08:05.164Z,93983.19
2023-04-15T16:10:32.399Z,93980.44
2023-04-15T16:12:59.126Z,93994.84
2023-04-15T16:15:26.918Z,93996.19
2023-04-15T16:17:53.742Z,93998.41
2023-04-15T16:20:20.593Z,94000.09
2023-04-15T16:22:47.494Z,94002.41
2023-04-15T16:25:15.458Z,94001.88
2023-04-15T16:27:57.213Z,94009.06
2023-04-15T16:33:18.005Z,94017.47
2023-04-15T16:35:45.348Z,94019.16
2023-04-15T16:38:12.368Z,94025.22
2023-04-15T16:40:39.131Z,94023.72
2023-04-15T16:43:06.225Z,94037.78
2023-04-15T16:45:33.036Z,94036.94
2023-04-15T16:48:00.221Z,94049.31
2023-04-15T16:50:27.040Z,94049.38
2023-04-15T16:52:54.188Z,94044.00
2023-04-15T16:55:20.946Z,94061.34
2023-04-15T16:58:02.045Z,94061.13
2023-04-15T17:00:33.907Z,94076.91
2023-04-15T17:03:01.281Z,94083.94
2023-04-15T17:05:28.445Z,94074.53
2023-04-15T17:07:55.458Z,94073.56
2023-04-15T17:10:22.402Z,94074.50
2023-04-15T17:16:30.077Z,94076.34
2023-04-15T17:18:56.900Z,94084.94
2023-04-15T17:21:23.712Z,94092.03
2023-04-15T17:23:59.559Z,94090.25
2023-04-15T17:26:26.344Z,94097.34
2023-04-15T17:28:53.138Z,94086.41
2023-04-15T17:31:21.596Z,94093.00
2023-04-15T17:34:13.881Z,94101.31
2023-04-15T17:36:42.089Z,94106.59
2023-04-15T17:39:08.845Z,94108.47
2023-04-15T17:41:35.573Z,94119.63
2023-04-15T17:44:02.346Z,94128.59
2023-04-15T17:46:30.009Z,94140.72
2023-04-15T17:48:57.195Z,94152.50
2023-04-15T17:51:23.946Z,94157.28
2023-04-15T17:53:50.617Z,94151.69
2023-04-15T17:56:17.440Z,94153.00
2023-04-15T17:58:44.122Z,94155.16
2023-04-15T18:01:11.297Z,94154.97
2023-04-15T18:07:03.083Z,94159.97
2023-04-15T18:09:30.477Z,94163.31
2023-04-15T18:12:04.415Z,94171.03
2023-04-15T18:14:34.763Z,94170.13
2023-04-15T18:17:02.413Z,94186.28
2023-04-15T18:19:30.025Z,94185.88
2023-04-15T18:21:56.904Z,94192.66
2023-04-15T18:24:23.603Z,94202.50
2023-04-15T18:26:50.346Z,94207.34
2023-04-15T18:29:17.119Z,94214.91
2023-04-15T18:31:44.052Z,94213.09
2023-04-15T18:34:12.065Z,94215.38
2023-04-15T18:36:38.853Z,94212.47
2023-04-15T18:39:06.284Z,94214.59
2023-04-15T18:41:33.246Z,94226.72
2023-04-15T18:44:00.057Z,94240.03
2023-04-15T18:46:27.818Z,94242.09
2023-04-15T18:48:54.678Z,94255.16
2023-04-15T18:51:21.503Z,94263.66
2023-04-15T18:53:48.289Z,94258.34
2023-04-15T18:56:15.048Z,94260.31
2023-04-15T18:59:08.936Z,94274.06
2023-04-15T19:01:28.829Z,94275.81
2023-04-15T19:03:56.024Z,94282.25
2023-04-15T19:06:22.971Z,94292.63
2023-04-15T19:08:50.085Z,94286.75
2023-04-15T19:11:20.200Z,94284.13
2023-04-15T19:13:47.671Z,94283.81
2023-04-15T19:16:14.441Z,94292.44
2023-04-15T19:18:42.244Z,94287.38
2023-04-15T19:21:09.015Z,94297.16
2023-04-15T19:23:35.711Z,94298.19
2023-04-15T19:26:02.766Z,94307.28
2023-04-15T19:28:32.585Z,94308.00
2023-04-15T19:31:00.815Z,94313.09
2023-04-15T19:33:28.600Z,94309.00
2023-04-15T19:35:55.336Z,94310.56
2023-04-15T19:38:22.119Z,94317.91
2023-04-15T19:40:50.059Z,94323.09
2023-04-15T19:43:17.143Z,94330.31
2023-04-15T19:45:44.404Z,94328.13
2023-04-15T19:48:11.143Z,94328.72
2023-04-15T19:50:38.022Z,94342.63
2023-04-15T19:53:06.093Z,94340.94
2023-04-15T19:55:33.190Z,94341.59
2023-04-15T19:58:00.689Z,94345.44
2023-04-15T20:00:28.818Z,94352.78
2023-04-15T20:02:55.864Z,94348.16
2023-04-15T20:05:23.176Z,94357.41
2023-04-15T20:07:51.035Z,94364.78
2023-04-15T20:10:18.763Z,94368.72
2023-04-15T20:12:51.427Z,94353.53
2023-04-15T20:15:20.015Z,94359.75
2023-04-15T20:17:46.954Z,94359.78
2023-04-15T20:20:13.731Z,94360.00
2023-04-15T20:22:40.905Z,94357.59
2023-04-15T20:25:07.869Z,94355.31
2023-04-15T20:27:34.594Z,94356.78
2023-04-15T20:30:01.982Z,94354.13
2023-04-15T20:32:28.802Z,94355.44
2023-04-15T20:34:55.841Z,94354.50
2023-04-15T20:37:22.585Z,94360.72
2023-04-15T20:39:49.471Z,94357.41
2023-04-15T20:42:16.324Z,94361.09
2023-04-15T20:44:43.034Z,94362.38
2023-04-15T20:47:09.863Z,94366.06
2023-04-15T20:49:37.032Z,94373.72
2023-04-15T20:52:04.465Z,94366.41
2023-04-15T20:54:31.310Z,94366.31
2023-04-15T20:56:58.039Z,94372.00
2023-04-15T20:59:25.173Z,94373.91
2023-04-15T21:01:51.978Z,94372.81
2023-04-15T21:04:18.785Z,94386.56
2023-04-15T21:06:46.205Z,94381.56
2023-04-15T21:09:12.981Z,94378.34
2023-04-15T21:11:57.556Z,94380.31
2023-04-15T21:14:26.825Z,94385.09
2023-04-15T21:16:53.536Z,94384.06
2023-04-15T21:19:20.227Z,94384.63
2023-04-15T21:21:48.043Z,94383.88
2023-04-15T21:24:14.738Z,94391.44
2023-04-15T21:26:58.935Z,94385.41
2023-04-15T21:29:25.949Z,94398.50
2023-04-15T21:31:52.802Z,94403.44
2023-04-15T21:34:19.967Z,94405.88
2023-04-15T21:36:47.104Z,94408.25
2023-04-15T21:39:13.802Z,94403.38
2023-04-15T21:41:40.913Z,94412.81
2023-04-15T21:44:07.611Z,94407.91
2023-04-15T21:46:35.533Z,94406.53
2023-04-15T21:49:03.265Z,94409.78
2023-04-15T21:51:30.194Z,94412.03
2023-04-15T21:53:56.916Z,94410.41
2023-04-15T21:56:23.718Z,94404.22
2023-04-15T21:58:50.447Z,94404.06
2023-04-15T22:01:17.776Z,94408.94
2023-04-15T22:03:44.848Z,94407.56
2023-04-15T22:06:11.726Z,94412.19
2023-04-15T22:08:52.398Z,94415.47
2023-04-15T22:11:22.634Z,94418.00
2023-04-15T22:13:49.461Z,94422.66
2023-04-15T22:16:16.301Z,94422.94
2023-04-15T22:18:43.030Z,94419.88
2023-04-15T22:21:09.912Z,94425.88
2023-04-15T22:23:36.723Z,94424.22
2023-04-15T22:26:04.568Z,94419.59
2023-04-15T22:28:31.301Z,94428.19
2023-04-15T22:30:58.085Z,94429.47
2023-04-15T22:33:25.159Z,94424.56
2023-04-15T22:35:51.935Z,94431.59
2023-04-15T22:38:18.825Z,94433.16
2023-04-15T22:40:48.521Z,94435.63
2023-04-15T22:43:15.196Z,94429.16
2023-04-15T22:45:47.964Z,94439.03
2023-04-15T22:48:15.264Z,94438.09
2023-04-15T22:50:42.582Z,94441.28
2023-04-15T22:53:09.287Z,94445.59
2023-04-15T22:55:36.377Z,94445.94
2023-04-15T22:58:06.518Z,94446.97
2023-04-15T23:00:33.269Z,94449.72
2023-04-15T23:03:01.255Z,94449.25
2023-04-15T23:05:28.265Z,94448.28
2023-04-15T23:07:55.400Z,94456.81
2023-04-15T23:10:22.122Z,94451.84
2023-04-15T23:12:48.878Z,94461.97
2023-04-15T23:15:15.623Z,94461.28
2023-04-15T23:17:42.536Z,94463.47
2023-04-15T23:20:09.676Z,94469.47
2023-04-15T23:22:36.528Z,94458.66
2023-04-15T23:25:06.515Z,94470.31
2023-04-15T23:27:33.399Z,94476.97
2023-04-15T23:30:00.246Z,94477.41
2023-04-15T23:32:27.006Z,94482.19
2023-04-15T23:34:53.899Z,94476.63
2023-04-15T23:37:20.757Z,94480.53
2023-04-15T23:39:47.609Z,94486.53
2023-04-15T23:42:14.300Z,94479.72
2023-04-15T23:44:41.021Z,94488.19
2023-04-15T23:47:07.779Z,94492.53
2023-04-15T23:49:34.501Z,94493.41
2023-04-15T23:55:48.834Z,94498.41
2023-04-15T23:58:17.094Z,94496.00
